sensor_id;sensor_type;location;lat;lon;timestamp;pressure;altitude;pressure_sealevel;temperature;humidity
72116;BME280;59991;52.140;5.428;2023-01-19T00:00:18;100007.22;;;1.52;100.00
72116;BME280;59991;52.140;5.428;2023-01-19T00:00:50;100005.31;;;1.53;100.00
72116;BME280;59991;52.140;5.428;2023-01-19T00:01:23;100014.94;;;1.54;100.00
72116;BME280;59991;52.140;5.428;2023-01-19T00:01:54;100005.31;;;1.53;100.00
72116;BME280;59991;52.140;5.428;2023-01-19T00:02:26;100005.31;;;1.53;100.00
72116;BME280;59991;52.140;5.428;2023-01-19T00:02:57;100005.31;;;1.53;100.00
72116;BME280;59991;52.140;5.428;2023-01-19T00:03:29;100003.75;;;1.52;100.00
72116;BME280;59991;52.140;5.428;2023-01-19T00:04:00;100006.88;;;1.54;100.00
72116;BME280;59991;52.140;5.428;2023-01-19T00:04:32;100005.31;;;1.53;100.00
72116;BME280;59991;52.140;5.428;2023-01-19T00:05:04;100006.44;;;1.52;100.00
72116;BME280;59991;52.140;5.428;2023-01-19T00:05:35;100008.78;;;1.53;100.00
72116;BME280;59991;52.140;5.428;2023-01-19T00:06:07;100011.47;;;1.53;100.00
72116;BME280;59991;52.140;5.428;2023-01-19T00:06:39;100006.09;;;1.53;100.00
72116;BME280;59991;52.140;5.428;2023-01-19T00:07:10;100001.50;;;1.54;100.00
72116;BME280;59991;52.140;5.428;2023-01-19T00:07:42;100007.63;;;1.54;100.00
72116;BME280;59991;52.140;5.428;2023-01-19T00:08:13;100007.28;;;1.56;100.00
72116;BME280;59991;52.140;5.428;2023-01-19T00:08:45;100001.50;;;1.54;100.00
72116;BME280;59991;52.140;5.428;2023-01-19T00:09:18;100006.88;;;1.54;100.00
72116;BME280;59991;52.140;5.428;2023-01-19T00:09:50;99998.81;;;1.54;100.00
72116;BME280;59991;52.140;5.428;2023-01-19T00:10:21;100002.25;;;1.54;100.00
72116;BME280;59991;52.140;5.428;2023-01-19T00:10:53;99999.56;;;1.54;100.00
72116;BME280;59991;52.140;5.428;2023-01-19T00:11:24;99996.88;;;1.54;100.00
72116;BME280;59991;52.140;5.428;2023-01-19T00:11:56;100001.50;;;1.54;100.00
72116;BME280;59991;52.140;5.428;2023-01-19T00:12:27;100006.50;;;1.55;100.00
72116;BME280;59991;52.140;5.428;2023-01-19T00:12:58;100001.13;;;1.55;100.00
72116;BME280;59991;52.140;5.428;2023-01-19T00:13:31;100006.97;;;1.57;100.00
72116;BME280;59991;52.140;5.428;2023-01-19T00:14:03;99996.22;;;1.57;100.00
72116;BME280;59991;52.140;5.428;2023-01-19T00:14:34;99993.88;;;1.56;100.00
72116;BME280;59991;52.140;5.428;2023-01-19T00:15:06;99999.69;;;1.58;100.00
72116;BME280;59991;52.140;5.428;2023-01-19T00:15:37;100005.84;;;1.58;100.00
72116;BME280;59991;52.140;5.428;2023-01-19T00:16:09;99999.69;;;1.58;100.00
72116;BME280;59991;52.140;5.428;2023-01-19T00:16:41;99993.19;;;1.59;100.00
72116;BME280;59991;52.140;5.428;2023-01-19T00:17:12;99993.19;;;1.59;100.00
72116;BME280;59991;52.140;5.428;2023-01-19T00:17:44;99997.78;;;1.58;100.00
72116;BME280;59991;52.140;5.428;2023-01-19T00:18:15;100001.25;;;1.59;100.00
72116;BME280;59991;52.140;5.428;2023-01-19T00:18:47;99997.78;;;1.58;100.00
72116;BME280;59991;52.140;5.428;2023-01-19T00:19:20;99997.44;;;1.60;100.00
72116;BME280;59991;52.140;5.428;2023-01-19T00:19:52;100000.47;;;1.58;100.00
72116;BME280;59991;52.140;5.428;2023-01-19T00:20:23;99995.88;;;1.59;100.00
72116;BME280;59991;52.140;5.428;2023-01-19T00:20:54;99994.31;;;1.58;100.00
72116;BME280;59991;52.140;5.428;2023-01-19T00:21:26;100001.59;;;1.57;100.00
72116;BME280;59991;52.140;5.428;2023-01-19T00:21:57;100003.94;;;1.59;100.00
72116;BME280;59991;52.140;5.428;2023-01-19T00:22:28;100009.31;;;1.59;100.00
72116;BME280;59991;52.140;5.428;2023-01-19T00:23:01;100009.31;;;1.59;100.00
72116;BME280;59991;52.140;5.428;2023-01-19T00:23:33;100012.00;;;1.59;100.00
72116;BME280;59991;52.140;5.428;2023-01-19T00:24:05;100012.00;;;1.59;100.00
72116;BME280;59991;52.140;5.428;2023-01-19T00:24:36;100010.09;;;1.59;100.00
72116;BME280;59991;52.140;5.428;2023-01-19T00:25:08;100015.47;;;1.59;100.00
72116;BME280;59991;52.140;5.428;2023-01-19T00:25:40;100010.88;;;1.60;100.00
72116;BME280;59991;52.140;5.428;2023-01-19T00:26:15;100015.47;;;1.59;100.00
72116;BME280;59991;52.140;5.428;2023-01-19T00:26:46;100006.19;;;1.57;100.00
72116;BME280;59991;52.140;5.428;2023-01-19T00:27:18;100016.94;;;1.57;100.00
72116;BME280;59991;52.140;5.428;2023-01-19T00:27:49;100021.84;;;1.55;100.00
72116;BME280;59991;52.140;5.428;2023-01-19T00:28:20;100015.28;;;1.52;100.00
72116;BME280;59991;52.140;5.428;2023-01-19T00:28:52;100019.84;;;1.52;100.00
72116;BME280;59991;52.140;5.428;2023-01-19T00:29:23;100021.31;;;1.49;100.00
72116;BME280;59991;52.140;5.428;2023-01-19T00:29:55;100021.97;;;1.46;100.00
72116;BME280;59991;52.140;5.428;2023-01-19T00:30:26;100018.84;;;1.44;100.00
72116;BME280;59991;52.140;5.428;2023-01-19T00:30:57;100021.06;;;1.42;100.00
72116;BME280;59991;52.140;5.428;2023-01-19T00:31:29;100007.97;;;1.41;100.00
72116;BME280;59991;52.140;5.428;2023-01-19T00:32:04;100014.47;;;1.39;100.00
72116;BME280;59991;52.140;5.428;2023-01-19T00:32:36;100006.28;;;1.36;100.00
72116;BME280;59991;52.140;5.428;2023-01-19T00:33:08;100012.91;;;1.38;100.00
72116;BME280;59991;52.140;5.428;2023-01-19T00:33:40;100004.38;;;1.36;100.00
72116;BME280;59991;52.140;5.428;2023-01-19T00:34:12;100002.50;;;1.37;100.00
72116;BME280;59991;52.140;5.428;2023-01-19T00:34:43;100009.44;;;1.38;100.00
72116;BME280;59991;52.140;5.428;2023-01-19T00:35:19;100007.84;;;1.37;100.00
72116;BME280;59991;52.140;5.428;2023-01-19T00:35:52;100011.66;;;1.36;100.00
72116;BME280;59991;52.140;5.428;2023-01-19T00:36:25;100017.81;;;1.36;100.00
72116;BME280;59991;52.140;5.428;2023-01-19T00:36:56;100012.78;;;1.35;100.00
72116;BME280;59991;52.140;5.428;2023-01-19T00:37:28;100012.78;;;1.35;100.00
72116;BME280;59991;52.140;5.428;2023-01-19T00:38:00;100015.47;;;1.35;100.00
72116;BME280;59991;52.140;5.428;2023-01-19T00:38:31;100024.66;;;1.34;100.00
72116;BME280;59991;52.140;5.428;2023-01-19T00:39:03;100019.63;;;1.32;100.00
72116;BME280;59991;52.140;5.428;2023-01-19T00:39:34;100021.88;;;1.30;100.00
72116;BME280;59991;52.140;5.428;2023-01-19T00:40:06;100016.50;;;1.30;100.00
72116;BME280;59991;52.140;5.428;2023-01-19T00:40:38;100015.38;;;1.31;100.00
72116;BME280;59991;52.140;5.428;2023-01-19T00:41:09;100021.53;;;1.32;100.00
72116;BME280;59991;52.140;5.428;2023-01-19T00:41:40;100020.75;;;1.31;100.00
72116;BME280;59991;52.140;5.428;2023-01-19T00:42:30;100012.34;;;1.33;100.00
72116;BME280;59991;52.140;5.428;2023-01-19T00:43:10;100007.31;;;1.31;100.00
72116;BME280;59991;52.140;5.428;2023-01-19T00:43:42;100011.56;;;1.32;100.00
72116;BME280;59991;52.140;5.428;2023-01-19T00:44:13;100011.56;;;1.32;100.00
72116;BME280;59991;52.140;5.428;2023-01-19T00:44:45;100011.56;;;1.32;100.00
72116;BME280;59991;52.140;5.428;2023-01-19T00:45:19;100015.38;;;1.31;100.00
72116;BME280;59991;52.140;5.428;2023-01-19T00:45:51;100016.81;;;1.29;100.00
72116;BME280;59991;52.140;5.428;2023-01-19T00:46:22;100010.34;;;1.30;100.00
72116;BME280;59991;52.140;5.428;2023-01-19T00:46:57;100013.03;;;1.30;100.00
72116;BME280;59991;52.140;5.428;2023-01-19T00:47:28;100012.25;;;1.29;100.00
72116;BME280;59991;52.140;5.428;2023-01-19T00:48:00;100008.78;;;1.29;100.00
72116;BME280;59991;52.140;5.428;2023-01-19T00:48:31;100007.66;;;1.30;100.00
72116;BME280;59991;52.140;5.428;2023-01-19T00:49:03;100008.44;;;1.30;100.00
72116;BME280;59991;52.140;5.428;2023-01-19T00:49:35;100011.13;;;1.30;100.00
72116;BME280;59991;52.140;5.428;2023-01-19T00:50:08;100007.66;;;1.30;100.00
72116;BME280;59991;52.140;5.428;2023-01-19T00:50:42;100009.56;;;1.29;100.00
72116;BME280;59991;52.140;5.428;2023-01-19T00:51:13;100004.19;;;1.29;100.00
72116;BME280;59991;52.140;5.428;2023-01-19T00:51:44;100002.94;;;1.27;100.00
72116;BME280;59991;52.140;5.428;2023-01-19T00:52:16;100002.16;;;1.26;100.00
72116;BME280;59991;52.140;5.428;2023-01-19T00:52:47;99996.34;;;1.24;100.00
72116;BME280;59991;52.140;5.428;2023-01-19T00:53:19;100003.28;;;1.25;100.00
72116;BME280;59991;52.140;5.428;2023-01-19T00:53:50;99999.34;;;1.23;100.00
72116;BME280;59991;52.140;5.428;2023-01-19T00:54:22;100003.94;;;1.22;100.00
72116;BME280;59991;52.140;5.428;2023-01-19T00:54:53;99992.41;;;1.22;100.00
72116;BME280;59991;52.140;5.428;2023-01-19T00:55:25;99998.13;;;1.20;100.00
72116;BME280;59991;52.140;5.428;2023-01-19T00:55:57;100002.69;;;1.20;100.00
72116;BME280;59991;52.140;5.428;2023-01-19T00:56:32;100007.75;;;1.21;100.00
72116;BME280;59991;52.140;5.428;2023-01-19T00:57:03;100005.84;;;1.22;100.00
72116;BME280;59991;52.140;5.428;2023-01-19T00:57:35;100010.44;;;1.21;100.00
72116;BME280;59991;52.140;5.428;2023-01-19T00:58:07;100011.22;;;1.22;100.00
72116;BME280;59991;52.140;5.428;2023-01-19T00:58:38;100008.97;;;1.24;100.00
72116;BME280;59991;52.140;5.428;2023-01-19T00:59:09;100005.50;;;1.23;100.00
72116;BME280;59991;52.140;5.428;2023-01-19T00:59:41;100009.75;;;1.24;100.00
72116;BME280;59991;52.140;5.428;2023-01-19T01:00:15;100002.16;;;1.26;100.00
72116;BME280;59991;52.140;5.428;2023-01-19T01:00:47;100007.53;;;1.26;100.00
72116;BME280;59991;52.140;5.428;2023-01-19T01:01:18;100001.38;;;1.26;100.00
72116;BME280;59991;52.140;5.428;2023-01-19T01:02:10;100000.25;;;1.27;100.00
72116;BME280;59991;52.140;5.428;2023-01-19T01:02:43;99999.13;;;1.28;100.00
72116;BME280;59991;52.140;5.428;2023-01-19T01:03:14;100006.41;;;1.27;100.00
72116;BME280;59991;52.140;5.428;2023-01-19T01:03:46;99998.34;;;1.27;100.00
72116;BME280;59991;52.140;5.428;2023-01-19T01:04:17;99997.25;;;1.28;100.00
72116;BME280;59991;52.140;5.428;2023-01-19T01:05:07;99999.13;;;1.28;100.00
72116;BME280;59991;52.140;5.428;2023-01-19T01:05:40;99998.03;;;1.29;100.00
72116;BME280;59991;52.140;5.428;2023-01-19T01:06:12;99998.03;;;1.29;100.00
72116;BME280;59991;52.140;5.428;2023-01-19T01:06:44;99996.91;;;1.30;100.00
72116;BME280;59991;52.140;5.428;2023-01-19T01:07:15;99995.00;;;1.30;100.00
72116;BME280;59991;52.140;5.428;2023-01-19T01:07:47;100006.19;;;1.32;100.00
72116;BME280;59991;52.140;5.428;2023-01-19T01:08:19;99996.56;;;1.31;100.00
72116;BME280;59991;52.140;5.428;2023-01-19T01:08:51;99994.34;;;1.33;100.00
72116;BME280;59991;52.140;5.428;2023-01-19T01:09:23;99998.59;;;1.34;100.00
72116;BME280;59991;52.140;5.428;2023-01-19T01:09:54;99999.34;;;1.35;100.00
72116;BME280;59991;52.140;5.428;2023-01-19T01:10:29;100003.59;;;1.36;100.00
72116;BME280;59991;52.140;5.428;2023-01-19T01:11:00;99995.53;;;1.36;100.00
72116;BME280;59991;52.140;5.428;2023-01-19T01:11:32;99995.53;;;1.36;100.00
72116;BME280;59991;52.140;5.428;2023-01-19T01:12:03;99992.84;;;1.36;100.00
72116;BME280;59991;52.140;5.428;2023-01-19T01:12:37;99988.72;;;1.38;100.00
72116;BME280;59991;52.140;5.428;2023-01-19T01:13:08;99994.09;;;1.38;100.00
72116;BME280;59991;52.140;5.428;2023-01-19T01:13:51;99983.34;;;1.38;100.00
72116;BME280;59991;52.140;5.428;2023-01-19T01:14:28;99983.34;;;1.38;100.00
72116;BME280;59991;52.140;5.428;2023-01-19T01:15:00;99982.22;;;1.39;100.00
72116;BME280;59991;52.140;5.428;2023-01-19T01:15:32;99983.34;;;1.38;100.00
72116;BME280;59991;52.140;5.428;2023-01-19T01:16:03;99991.84;;;1.41;100.00
72116;BME280;59991;52.140;5.428;2023-01-19T01:16:35;100000.69;;;1.41;100.00
72116;BME280;59991;52.140;5.428;2023-01-19T01:17:07;99986.47;;;1.41;100.00
72116;BME280;59991;52.140;5.428;2023-01-19T01:17:42;99988.84;;;1.42;100.00
72116;BME280;59991;52.140;5.428;2023-01-19T01:18:16;99987.28;;;1.41;100.00
72116;BME280;59991;52.140;5.428;2023-01-19T01:18:48;99989.97;;;1.41;100.00
72116;BME280;59991;52.140;5.428;2023-01-19T01:19:20;99990.75;;;1.42;100.00
72116;BME280;59991;52.140;5.428;2023-01-19T01:19:51;99996.91;;;1.42;100.00
72116;BME280;59991;52.140;5.428;2023-01-19T01:20:25;99991.53;;;1.42;100.00
72116;BME280;59991;52.140;5.428;2023-01-19T01:21:03;99994.22;;;1.42;100.00
72116;BME280;59991;52.140;5.428;2023-01-19T01:21:35;99990.75;;;1.42;100.00
72116;BME280;59991;52.140;5.428;2023-01-19T01:22:08;99999.59;;;1.42;100.00
72116;BME280;59991;52.140;5.428;2023-01-19T01:22:40;99998.00;;;1.41;100.00
72116;BME280;59991;52.140;5.428;2023-01-19T01:23:15;99990.28;;;1.39;100.00
72116;BME280;59991;52.140;5.428;2023-01-19T01:23:46;99999.91;;;1.41;100.00
72116;BME280;59991;52.140;5.428;2023-01-19T01:24:18;99999.47;;;1.38;100.00
72116;BME280;59991;52.140;5.428;2023-01-19T01:25:39;99997.91;;;1.37;100.00
72116;BME280;59991;52.140;5.428;2023-01-19T01:26:12;99993.22;;;1.34;100.00
72116;BME280;59991;52.140;5.428;2023-01-19T01:26:44;99993.22;;;1.34;100.00
72116;BME280;59991;52.140;5.428;2023-01-19T01:27:34;99998.94;;;1.33;100.00
72116;BME280;59991;52.140;5.428;2023-01-19T01:28:06;99995.78;;;1.31;100.00
72116;BME280;59991;52.140;5.428;2023-01-19T01:28:38;99989.97;;;1.29;100.00
72116;BME280;59991;52.140;5.428;2023-01-19T01:29:10;99996.13;;;1.29;100.00
72116;BME280;59991;52.140;5.428;2023-01-19T01:29:41;99996.91;;;1.30;100.00
72116;BME280;59991;52.140;5.428;2023-01-19T01:30:35;99994.56;;;1.28;100.00
72116;BME280;59991;52.140;5.428;2023-01-19T01:31:10;99994.88;;;1.27;100.00
72116;BME280;59991;52.140;5.428;2023-01-19T01:31:41;99999.47;;;1.26;100.00
72116;BME280;59991;52.140;5.428;2023-01-19T01:32:13;100003.72;;;1.27;100.00
72116;BME280;59991;52.140;5.428;2023-01-19T01:32:45;99999.47;;;1.26;100.00
72116;BME280;59991;52.140;5.428;2023-01-19T01:33:16;99992.09;;;1.23;100.00
72116;BME280;59991;52.140;5.428;2023-01-19T01:34:07;100005.19;;;1.25;100.00
72116;BME280;59991;52.140;5.428;2023-01-19T01:34:39;99995.22;;;1.25;100.00
72116;BME280;59991;52.140;5.428;2023-01-19T01:35:12;100004.06;;;1.26;100.00
72116;BME280;59991;52.140;5.428;2023-01-19T01:35:43;100005.19;;;1.25;100.00
72116;BME280;59991;52.140;5.428;2023-01-19T01:36:15;99998.25;;;1.24;100.00
72116;BME280;59991;52.140;5.428;2023-01-19T01:36:46;100001.72;;;1.24;100.00
72116;BME280;59991;52.140;5.428;2023-01-19T01:37:18;100002.50;;;1.25;100.00
72116;BME280;59991;52.140;5.428;2023-01-19T01:37:49;100000.91;;;1.24;100.00
72116;BME280;59991;52.140;5.428;2023-01-19T01:38:20;100005.97;;;1.25;100.00
72116;BME280;59991;52.140;5.428;2023-01-19T01:38:52;100001.72;;;1.24;100.00
72116;BME280;59991;52.140;5.428;2023-01-19T01:39:23;99997.44;;;1.23;100.00
72116;BME280;59991;52.140;5.428;2023-01-19T01:39:55;100006.75;;;1.26;100.00
72116;BME280;59991;52.140;5.428;2023-01-19T01:40:43;100004.41;;;1.24;100.00
72116;BME280;59991;52.140;5.428;2023-01-19T01:41:15;99999.81;;;1.25;100.00
72116;BME280;59991;52.140;5.428;2023-01-19T01:41:47;100000.91;;;1.24;100.00
72116;BME280;59991;52.140;5.428;2023-01-19T01:42:19;100002.81;;;1.23;100.00
72116;BME280;59991;52.140;5.428;2023-01-19T01:42:55;99999.03;;;1.24;100.00
72116;BME280;59991;52.140;5.428;2023-01-19T01:43:41;100000.91;;;1.24;100.00
72116;BME280;59991;52.140;5.428;2023-01-19T01:44:41;100000.13;;;1.23;100.00
72116;BME280;59991;52.140;5.428;2023-01-19T01:45:30;100007.84;;;1.25;100.00
72116;BME280;59991;52.140;5.428;2023-01-19T01:46:02;100005.97;;;1.25;100.00
72116;BME280;59991;52.140;5.428;2023-01-19T01:46:33;100009.44;;;1.26;100.00
72116;BME280;59991;52.140;5.428;2023-01-19T01:47:05;100009.44;;;1.26;100.00
72116;BME280;59991;52.140;5.428;2023-01-19T01:47:41;100004.84;;;1.26;100.00
72116;BME280;59991;52.140;5.428;2023-01-19T01:48:15;100005.19;;;1.25;100.00
72116;BME280;59991;52.140;5.428;2023-01-19T01:49:09;100014.81;;;1.26;100.00
72116;BME280;59991;52.140;5.428;2023-01-19T01:49:43;100007.41;;;1.23;100.00
72116;BME280;59991;52.140;5.428;2023-01-19T01:50:26;100014.00;;;1.25;100.00
72116;BME280;59991;52.140;5.428;2023-01-19T01:51:04;100012.91;;;1.26;100.00
72116;BME280;59991;52.140;5.428;2023-01-19T01:51:55;100010.22;;;1.26;100.00
72116;BME280;59991;52.140;5.428;2023-01-19T01:52:28;100016.38;;;1.27;100.00
72116;BME280;59991;52.140;5.428;2023-01-19T01:53:06;100016.03;;;1.28;100.00
72116;BME280;59991;52.140;5.428;2023-01-19T01:54:09;100013.34;;;1.28;100.00
72116;BME280;59991;52.140;5.428;2023-01-19T01:54:59;100005.75;;;1.30;100.00
72116;BME280;59991;52.140;5.428;2023-01-19T01:55:35;100011.13;;;1.30;100.00
72116;BME280;59991;52.140;5.428;2023-01-19T01:56:12;100003.06;;;1.30;100.00
72116;BME280;59991;52.140;5.428;2023-01-19T01:56:47;100008.44;;;1.30;100.00
72116;BME280;59991;52.140;5.428;2023-01-19T01:57:19;100006.53;;;1.31;100.00
72116;BME280;59991;52.140;5.428;2023-01-19T01:57:52;100008.88;;;1.32;100.00
72116;BME280;59991;52.140;5.428;2023-01-19T01:58:45;100006.19;;;1.32;100.00
72116;BME280;59991;52.140;5.428;2023-01-19T02:00:12;99997.03;;;1.33;100.00
72116;BME280;59991;52.140;5.428;2023-01-19T02:00:44;100002.41;;;1.33;100.00
72116;BME280;59991;52.140;5.428;2023-01-19T02:01:35;100004.72;;;1.35;100.00
72116;BME280;59991;52.140;5.428;2023-01-19T02:02:27;100002.81;;;1.35;100.00
72116;BME280;59991;52.140;5.428;2023-01-19T02:03:21;100010.53;;;1.37;100.00
72116;BME280;59991;52.140;5.428;2023-01-19T02:03:55;100011.31;;;1.37;100.00
72116;BME280;59991;52.140;5.428;2023-01-19T02:04:28;100010.53;;;1.37;100.00
72116;BME280;59991;52.140;5.428;2023-01-19T02:05:08;100012.56;;;1.40;100.00
72116;BME280;59991;52.140;5.428;2023-01-19T02:05:41;100007.19;;;1.40;100.00
72116;BME280;59991;52.140;5.428;2023-01-19T02:06:13;100008.31;;;1.39;100.00
72116;BME280;59991;52.140;5.428;2023-01-19T02:06:45;100010.66;;;1.41;100.00
72116;BME280;59991;52.140;5.428;2023-01-19T02:08:39;100015.38;;;1.44;100.00
72116;BME280;59991;52.140;5.428;2023-01-19T02:09:35;100016.16;;;1.44;100.00
72116;BME280;59991;52.140;5.428;2023-01-19T02:10:26;100014.25;;;1.45;100.00
72116;BME280;59991;52.140;5.428;2023-01-19T02:11:16;100011.56;;;1.45;100.00
72116;BME280;59991;52.140;5.428;2023-01-19T02:12:06;100017.38;;;1.47;100.00
72116;BME280;59991;52.140;5.428;2023-01-19T02:12:56;100010.91;;;1.48;100.00
72116;BME280;59991;52.140;5.428;2023-01-19T02:13:47;100015.50;;;1.47;100.00
72116;BME280;59991;52.140;5.428;2023-01-19T02:14:18;100020.53;;;1.49;100.00
72116;BME280;59991;52.140;5.428;2023-01-19T02:14:50;100021.31;;;1.49;100.00
72116;BME280;59991;52.140;5.428;2023-01-19T02:15:21;100015.94;;;1.49;100.00
72116;BME280;59991;52.140;5.428;2023-01-19T02:15:55;100014.03;;;1.50;100.00
72116;BME280;59991;52.140;5.428;2023-01-19T02:16:28;100018.28;;;1.51;100.00
72116;BME280;59991;52.140;5.428;2023-01-19T02:17:00;100026.03;;;1.52;100.00
72116;BME280;59991;52.140;5.428;2023-01-19T02:17:31;100014.50;;;1.52;100.00
72116;BME280;59991;52.140;5.428;2023-01-19T02:18:03;100023.00;;;1.54;100.00
72116;BME280;59991;52.140;5.428;2023-01-19T02:18:35;100017.63;;;1.54;100.00
72116;BME280;59991;52.140;5.428;2023-01-19T02:19:11;100020.31;;;1.54;100.00
72116;BME280;59991;52.140;5.428;2023-01-19T02:19:43;100011.09;;;1.55;100.00
72116;BME280;59991;52.140;5.428;2023-01-19T02:20:17;100014.25;;;1.57;100.00
72116;BME280;59991;52.140;5.428;2023-01-19T02:21:03;100022.31;;;1.57;100.00
72116;BME280;59991;52.140;5.428;2023-01-19T02:22:05;100010.44;;;1.58;100.00
72116;BME280;59991;52.140;5.428;2023-01-19T02:22:45;100021.19;;;1.58;100.00
72116;BME280;59991;52.140;5.428;2023-01-19T02:23:29;100017.38;;;1.59;100.00
72116;BME280;59991;52.140;5.428;2023-01-19T02:24:02;100026.22;;;1.59;100.00
72116;BME280;59991;52.140;5.428;2023-01-19T02:24:34;100017.81;;;1.61;100.00
72116;BME280;59991;52.140;5.428;2023-01-19T02:25:06;100018.28;;;1.63;100.00
72116;BME280;59991;52.140;5.428;2023-01-19T02:25:37;100011.78;;;1.64;100.00
72116;BME280;59991;52.140;5.428;2023-01-19T02:26:19;100013.34;;;1.65;100.00
72116;BME280;59991;52.140;5.428;2023-01-19T02:26:51;100010.66;;;1.65;100.00
72116;BME280;59991;52.140;5.428;2023-01-19T02:27:23;100011.13;;;1.67;100.00
72116;BME280;59991;52.140;5.428;2023-01-19T02:27:55;100016.94;;;1.69;100.00
72116;BME280;59991;52.140;5.428;2023-01-19T02:28:27;100017.38;;;1.71;100.00
72116;BME280;59991;52.140;5.428;2023-01-19T02:29:13;100020.06;;;1.71;100.00
72116;BME280;59991;52.140;5.428;2023-01-19T02:29:46;100019.75;;;1.72;100.00
72116;BME280;59991;52.140;5.428;2023-01-19T02:30:18;100014.38;;;1.72;100.00
72116;BME280;59991;52.140;5.428;2023-01-19T02:30:49;100020.16;;;1.74;100.00
72116;BME280;59991;52.140;5.428;2023-01-19T02:31:21;100022.06;;;1.74;100.00
72116;BME280;59991;52.140;5.428;2023-01-19T02:31:52;100025.19;;;1.76;100.00
72116;BME280;59991;52.140;5.428;2023-01-19T02:32:25;100024.09;;;1.77;100.00
72116;BME280;59991;52.140;5.428;2023-01-19T02:32:57;100021.41;;;1.77;100.00
72116;BME280;59991;52.140;5.428;2023-01-19T02:33:29;100031.81;;;1.79;100.00
72116;BME280;59991;52.140;5.428;2023-01-19T02:34:01;100036.06;;;1.80;100.00
72116;BME280;59991;52.140;5.428;2023-01-19T02:34:33;100034.16;;;1.80;100.00
72116;BME280;59991;52.140;5.428;2023-01-19T02:35:05;100033.03;;;1.81;100.00
72116;BME280;59991;52.140;5.428;2023-01-19T02:35:38;100027.66;;;1.81;100.00
72116;BME280;59991;52.140;5.428;2023-01-19T02:36:12;100033.81;;;1.82;100.00
72116;BME280;59991;52.140;5.428;2023-01-19T02:37:25;100030.03;;;1.83;100.00
72116;BME280;59991;52.140;5.428;2023-01-19T02:38:00;100036.19;;;1.83;100.00
72116;BME280;59991;52.140;5.428;2023-01-19T02:38:32;100034.63;;;1.82;100.00
72116;BME280;59991;52.140;5.428;2023-01-19T02:39:06;100035.06;;;1.84;100.00
72116;BME280;59991;52.140;5.428;2023-01-19T02:39:46;100033.16;;;1.85;100.00
72116;BME280;59991;52.140;5.428;2023-01-19T02:40:21;100034.72;;;1.86;100.00
72116;BME280;59991;52.140;5.428;2023-01-19T02:40:57;100034.38;;;1.87;100.00
72116;BME280;59991;52.140;5.428;2023-01-19T02:41:33;100032.47;;;1.88;100.00
72116;BME280;59991;52.140;5.428;2023-01-19T02:42:16;100040.56;;;1.88;100.00
72116;BME280;59991;52.140;5.428;2023-01-19T02:42:49;100037.88;;;1.88;100.00
72116;BME280;59991;52.140;5.428;2023-01-19T02:43:22;100040.22;;;1.89;100.00
72116;BME280;59991;52.140;5.428;2023-01-19T02:43:56;100038.31;;;1.90;100.00
72116;BME280;59991;52.140;5.428;2023-01-19T02:44:29;100039.09;;;1.90;100.00
72116;BME280;59991;52.140;5.428;2023-01-19T02:45:01;100041.44;;;1.92;100.00
72116;BME280;59991;52.140;5.428;2023-01-19T02:45:37;100041.78;;;1.90;100.00
72116;BME280;59991;52.140;5.428;2023-01-19T02:46:10;100040.31;;;1.93;100.00
72116;BME280;59991;52.140;5.428;2023-01-19T02:46:41;100041.44;;;1.92;100.00
72116;BME280;59991;52.140;5.428;2023-01-19T02:47:13;100041.88;;;1.94;100.00
72116;BME280;59991;52.140;5.428;2023-01-19T02:47:49;100039.97;;;1.94;100.00
72116;BME280;59991;52.140;5.428;2023-01-19T02:48:20;100037.97;;;1.91;100.00
72116;BME280;59991;52.140;5.428;2023-01-19T02:48:57;100046.47;;;1.93;100.00
72116;BME280;59991;52.140;5.428;2023-01-19T02:49:29;100050.38;;;1.96;100.00
72116;BME280;59991;52.140;5.428;2023-01-19T02:50:01;100048.03;;;1.94;100.00
72116;BME280;59991;52.140;5.428;2023-01-19T02:50:39;100046.13;;;1.95;100.00
72116;BME280;59991;52.140;5.428;2023-01-19T02:51:49;100045.34;;;1.94;100.00
72116;BME280;59991;52.140;5.428;2023-01-19T02:52:21;100056.09;;;1.94;100.00
72116;BME280;59991;52.140;5.428;2023-01-19T02:52:58;100057.66;;;1.95;100.00
72116;BME280;59991;52.140;5.428;2023-01-19T02:55:40;100052.28;;;1.95;100.00
72116;BME280;59991;52.140;5.428;2023-01-19T02:56:28;100056.09;;;1.94;100.00
72116;BME280;59991;52.140;5.428;2023-01-19T02:57:16;100057.66;;;1.95;100.00
72116;BME280;59991;52.140;5.428;2023-01-19T02:58:19;100053.41;;;1.94;100.00
72116;BME280;59991;52.140;5.428;2023-01-19T02:59:01;100059.56;;;1.95;100.00
72116;BME280;59991;52.140;5.428;2023-01-19T03:03:07;100061.91;;;1.96;100.00
72116;BME280;59991;52.140;5.428;2023-01-19T03:04:00;100060.00;;;1.97;100.00
72116;BME280;59991;52.140;5.428;2023-01-19T03:06:57;100061.91;;;1.96;100.00
72116;BME280;59991;52.140;5.428;2023-01-19T03:07:55;100067.28;;;1.96;100.00
72116;BME280;59991;52.140;5.428;2023-01-19T03:08:52;100076.16;;;1.97;100.00
72116;BME280;59991;52.140;5.428;2023-01-19T03:09:45;100071.88;;;1.96;100.00
72116;BME280;59991;52.140;5.428;2023-01-19T03:11:00;100077.72;;;1.98;100.00
72116;BME280;59991;52.140;5.428;2023-01-19T03:11:37;100073.47;;;1.97;100.00
72116;BME280;59991;52.140;5.428;2023-01-19T03:13:37;100085.00;;;1.97;100.00
72116;BME280;59991;52.140;5.428;2023-01-19T03:14:09;100075.03;;;1.98;100.00
72116;BME280;59991;52.140;5.428;2023-01-19T03:14:46;100075.81;;;1.98;100.00
72116;BME280;59991;52.140;5.428;2023-01-19T03:15:26;100086.56;;;1.98;100.00
72116;BME280;59991;52.140;5.428;2023-01-19T03:16:08;100075.81;;;1.98;100.00
72116;BME280;59991;52.140;5.428;2023-01-19T03:16:47;100090.81;;;1.99;100.00
72116;BME280;59991;52.140;5.428;2023-01-19T03:17:21;100073.47;;;1.97;100.00
72116;BME280;59991;52.140;5.428;2023-01-19T03:17:52;100078.50;;;1.98;100.00